sensor_id;sensor_type;location;lat;lon;timestamp;temperature;humidity
72762;SHT30;60886;55.034;73.150;2022-08-01T00:01:44;18.21;87.70
72762;SHT30;60886;55.034;73.150;2022-08-01T00:04:15;18.17;87.70
72762;SHT30;60886;55.034;73.150;2022-08-01T00:06:42;18.25;87.67
72762;SHT30;60886;55.034;73.150;2022-08-01T00:09:08;18.26;87.66
72762;SHT30;60886;55.034;73.150;2022-08-01T00:11:35;18.23;87.56
72762;SHT30;60886;55.034;73.150;2022-08-01T00:14:05;18.21;87.68
72762;SHT30;60886;55.034;73.150;2022-08-01T00:16:31;18.26;87.59
72762;SHT30;60886;55.034;73.150;2022-08-01T00:18:59;18.28;87.59
72762;SHT30;60886;55.034;73.150;2022-08-01T00:21:25;18.36;87.54
72762;SHT30;60886;55.034;73.150;2022-08-01T00:23:51;18.37;87.47
72762;SHT30;60886;55.034;73.150;2022-08-01T00:26:27;18.46;87.46
72762;SHT30;60886;55.034;73.150;2022-08-01T00:28:59;18.52;87.05
72762;SHT30;60886;55.034;73.150;2022-08-01T00:31:31;18.60;86.94
72762;SHT30;60886;55.034;73.150;2022-08-01T00:33:58;18.64;86.93
72762;SHT30;60886;55.034;73.150;2022-08-01T00:36:26;18.68;86.94
72762;SHT30;60886;55.034;73.150;2022-08-01T00:38:52;18.76;86.85
72762;SHT30;60886;55.034;73.150;2022-08-01T00:41:19;18.83;86.65
72762;SHT30;60886;55.034;73.150;2022-08-01T00:43:45;18.88;86.52
72762;SHT30;60886;55.034;73.150;2022-08-01T00:46:12;18.96;86.37
72762;SHT30;60886;55.034;73.150;2022-08-01T00:48:38;18.96;86.27
72762;SHT30;60886;55.034;73.150;2022-08-01T00:51:05;19.01;86.20
72762;SHT30;60886;55.034;73.150;2022-08-01T00:53:32;19.00;86.23
72762;SHT30;60886;55.034;73.150;2022-08-01T00:55:59;19.08;86.00
72762;SHT30;60886;55.034;73.150;2022-08-01T00:58:26;19.12;85.87
72762;SHT30;60886;55.034;73.150;2022-08-01T01:00:55;19.18;85.97
72762;SHT30;60886;55.034;73.150;2022-08-01T01:03:23;19.27;85.62
72762;SHT30;60886;55.034;73.150;2022-08-01T01:06:15;19.32;85.29
72762;SHT30;60886;55.034;73.150;2022-08-01T01:09:00;19.38;85.06
72762;SHT30;60886;55.034;73.150;2022-08-01T01:11:49;19.41;84.87
72762;SHT30;60886;55.034;73.150;2022-08-01T01:14:33;19.42;85.05
72762;SHT30;60886;55.034;73.150;2022-08-01T01:17:03;19.49;84.65
72762;SHT30;60886;55.034;73.150;2022-08-01T01:19:40;19.54;84.50
72762;SHT30;60886;55.034;73.150;2022-08-01T01:28:06;19.94;83.39
72762;SHT30;60886;55.034;73.150;2022-08-01T01:30:35;20.12;83.06
72762;SHT30;60886;55.034;73.150;2022-08-01T01:33:06;20.32;82.84
72762;SHT30;60886;55.034;73.150;2022-08-01T01:35:36;20.41;81.84
72762;SHT30;60886;55.034;73.150;2022-08-01T01:38:14;20.54;82.18
72762;SHT30;60886;55.034;73.150;2022-08-01T01:40:43;20.70;81.46
72762;SHT30;60886;55.034;73.150;2022-08-01T01:43:12;20.88;80.27
72762;SHT30;60886;55.034;73.150;2022-08-01T01:45:40;20.99;79.91
72762;SHT30;60886;55.034;73.150;2022-08-01T01:48:09;21.09;79.79
72762;SHT30;60886;55.034;73.150;2022-08-01T01:50:37;21.15;79.84
72762;SHT30;60886;55.034;73.150;2022-08-01T01:53:05;21.27;79.24
72762;SHT30;60886;55.034;73.150;2022-08-01T01:55:34;21.48;78.33
72762;SHT30;60886;55.034;73.150;2022-08-01T01:58:13;21.52;78.01
72762;SHT30;60886;55.034;73.150;2022-08-01T02:00:42;21.65;77.50
72762;SHT30;60886;55.034;73.150;2022-08-01T02:03:19;21.63;78.78
72762;SHT30;60886;55.034;73.150;2022-08-01T02:05:47;21.56;77.92
72762;SHT30;60886;55.034;73.150;2022-08-01T02:08:15;21.53;78.63
72762;SHT30;60886;55.034;73.150;2022-08-01T02:10:44;21.60;78.02
72762;SHT30;60886;55.034;73.150;2022-08-01T02:13:33;21.58;78.51
72762;SHT30;60886;55.034;73.150;2022-08-01T02:16:09;21.49;78.27
72762;SHT30;60886;55.034;73.150;2022-08-01T02:18:40;21.59;77.89
72762;SHT30;60886;55.034;73.150;2022-08-01T02:21:09;21.76;77.84
72762;SHT30;60886;55.034;73.150;2022-08-01T02:23:48;21.89;76.62
72762;SHT30;60886;55.034;73.150;2022-08-01T02:26:17;21.96;76.59
72762;SHT30;60886;55.034;73.150;2022-08-01T02:28:50;22.00;77.15
72762;SHT30;60886;55.034;73.150;2022-08-01T02:31:21;21.96;76.92
72762;SHT30;60886;55.034;73.150;2022-08-01T02:34:04;21.90;77.03
72762;SHT30;60886;55.034;73.150;2022-08-01T02:36:33;21.80;76.92
72762;SHT30;60886;55.034;73.150;2022-08-01T02:39:06;21.79;76.75
72762;SHT30;60886;55.034;73.150;2022-08-01T02:41:39;21.82;77.37
72762;SHT30;60886;55.034;73.150;2022-08-01T02:44:09;21.97;77.42
72762;SHT30;60886;55.034;73.150;2022-08-01T02:46:41;22.09;76.60
72762;SHT30;60886;55.034;73.150;2022-08-01T02:49:10;22.16;76.72
72762;SHT30;60886;55.034;73.150;2022-08-01T02:51:42;22.29;76.15
72762;SHT30;60886;55.034;73.150;2022-08-01T02:54:10;22.44;76.60
72762;SHT30;60886;55.034;73.150;2022-08-01T02:56:38;22.43;75.25
72762;SHT30;60886;55.034;73.150;2022-08-01T02:59:10;22.53;75.44
72762;SHT30;60886;55.034;73.150;2022-08-01T03:01:39;22.64;76.40
72762;SHT30;60886;55.034;73.150;2022-08-01T03:04:06;22.69;75.36
72762;SHT30;60886;55.034;73.150;2022-08-01T03:06:33;22.74;73.99
72762;SHT30;60886;55.034;73.150;2022-08-01T03:09:02;22.87;74.54
72762;SHT30;60886;55.034;73.150;2022-08-01T03:11:30;22.87;75.17
72762;SHT30;60886;55.034;73.150;2022-08-01T03:14:02;22.99;73.76
72762;SHT30;60886;55.034;73.150;2022-08-01T03:16:31;22.99;73.52
72762;SHT30;60886;55.034;73.150;2022-08-01T03:19:00;22.92;73.90
72762;SHT30;60886;55.034;73.150;2022-08-01T03:21:28;22.90;73.58
72762;SHT30;60886;55.034;73.150;2022-08-01T03:24:00;22.92;73.46
72762;SHT30;60886;55.034;73.150;2022-08-01T03:26:29;22.88;74.11
72762;SHT30;60886;55.034;73.150;2022-08-01T03:28:59;22.85;74.40
72762;SHT30;60886;55.034;73.150;2022-08-01T03:31:28;22.78;74.75
72762;SHT30;60886;55.034;73.150;2022-08-01T03:33:56;22.74;74.43
72762;SHT30;60886;55.034;73.150;2022-08-01T03:36:25;22.64;74.73
72762;SHT30;60886;55.034;73.150;2022-08-01T03:39:04;22.57;75.07
72762;SHT30;60886;55.034;73.150;2022-08-01T03:41:39;22.47;74.59
72762;SHT30;60886;55.034;73.150;2022-08-01T03:44:20;22.39;75.05
72762;SHT30;60886;55.034;73.150;2022-08-01T03:46:56;22.34;75.85
72762;SHT30;60886;55.034;73.150;2022-08-01T03:49:28;22.21;75.68
72762;SHT30;60886;55.034;73.150;2022-08-01T03:52:04;22.11;76.58
72762;SHT30;60886;55.034;73.150;2022-08-01T03:54:35;22.13;76.64
72762;SHT30;60886;55.034;73.150;2022-08-01T03:57:03;22.09;76.28
72762;SHT30;60886;55.034;73.150;2022-08-01T03:59:31;22.14;76.43
72762;SHT30;60886;55.034;73.150;2022-08-01T04:02:00;22.11;76.11
72762;SHT30;60886;55.034;73.150;2022-08-01T04:04:28;22.07;76.33
72762;SHT30;60886;55.034;73.150;2022-08-01T04:06:55;22.11;76.62
72762;SHT30;60886;55.034;73.150;2022-08-01T04:09:22;22.11;76.52
72762;SHT30;60886;55.034;73.150;2022-08-01T04:11:48;22.14;76.48
72762;SHT30;60886;55.034;73.150;2022-08-01T04:14:15;22.20;76.15
72762;SHT30;60886;55.034;73.150;2022-08-01T04:16:41;22.13;76.21
72762;SHT30;60886;55.034;73.150;2022-08-01T04:19:08;22.01;75.50
72762;SHT30;60886;55.034;73.150;2022-08-01T04:21:35;21.92;76.16
72762;SHT30;60886;55.034;73.150;2022-08-01T04:24:07;21.97;76.53
72762;SHT30;60886;55.034;73.150;2022-08-01T04:26:36;21.99;76.42
72762;SHT30;60886;55.034;73.150;2022-08-01T04:29:04;21.96;75.54
72762;SHT30;60886;55.034;73.150;2022-08-01T04:31:32;21.94;76.11
72762;SHT30;60886;55.034;73.150;2022-08-01T04:34:02;22.00;75.99
72762;SHT30;60886;55.034;73.150;2022-08-01T04:36:30;22.11;75.80
72762;SHT30;60886;55.034;73.150;2022-08-01T04:39:00;22.10;75.12
72762;SHT30;60886;55.034;73.150;2022-08-01T04:41:29;22.00;75.49
72762;SHT30;60886;55.034;73.150;2022-08-01T04:43:57;21.97;75.57
72762;SHT30;60886;55.034;73.150;2022-08-01T04:46:26;21.90;76.85
72762;SHT30;60886;55.034;73.150;2022-08-01T04:48:54;21.83;76.53
72762;SHT30;60886;55.034;73.150;2022-08-01T04:51:21;21.83;77.27
72762;SHT30;60886;55.034;73.150;2022-08-01T04:53:58;21.89;76.85
72762;SHT30;60886;55.034;73.150;2022-08-01T04:56:24;21.88;76.65
72762;SHT30;60886;55.034;73.150;2022-08-01T04:58:54;21.93;76.97
72762;SHT30;60886;55.034;73.150;2022-08-01T05:01:50;21.89;75.92
72762;SHT30;60886;55.034;73.150;2022-08-01T05:04:16;21.88;76.35
72762;SHT30;60886;55.034;73.150;2022-08-01T05:06:43;21.86;76.23
72762;SHT30;60886;55.034;73.150;2022-08-01T05:09:09;21.88;76.29
72762;SHT30;60886;55.034;73.150;2022-08-01T05:11:36;21.96;76.06
72762;SHT30;60886;55.034;73.150;2022-08-01T05:14:02;22.09;76.70
72762;SHT30;60886;55.034;73.150;2022-08-01T05:16:28;22.10;75.38
72762;SHT30;60886;55.034;73.150;2022-08-01T05:19:05;22.09;75.88
72762;SHT30;60886;55.034;73.150;2022-08-01T05:21:31;22.14;75.37
72762;SHT30;60886;55.034;73.150;2022-08-01T05:24:07;22.07;75.32
72762;SHT30;60886;55.034;73.150;2022-08-01T05:26:34;21.96;75.39
72762;SHT30;60886;55.034;73.150;2022-08-01T05:29:01;21.99;75.53
72762;SHT30;60886;55.034;73.150;2022-08-01T05:31:28;21.99;75.46
72762;SHT30;60886;55.034;73.150;2022-08-01T05:33:54;22.06;74.61
72762;SHT30;60886;55.034;73.150;2022-08-01T05:36:20;22.07;74.11
72762;SHT30;60886;55.034;73.150;2022-08-01T05:38:47;22.09;74.58
72762;SHT30;60886;55.034;73.150;2022-08-01T05:41:13;22.17;74.27
72762;SHT30;60886;55.034;73.150;2022-08-01T05:43:40;22.21;74.84
72762;SHT30;60886;55.034;73.150;2022-08-01T05:46:06;22.29;73.81
72762;SHT30;60886;55.034;73.150;2022-08-01T05:48:32;22.23;74.27
72762;SHT30;60886;55.034;73.150;2022-08-01T05:50:59;22.24;74.46
72762;SHT30;60886;55.034;73.150;2022-08-01T05:53:25;22.29;74.96
72762;SHT30;60886;55.034;73.150;2022-08-01T05:55:52;22.25;74.38
72762;SHT30;60886;55.034;73.150;2022-08-01T05:58:28;22.25;74.68
72762;SHT30;60886;55.034;73.150;2022-08-01T06:00:55;22.25;74.23
72762;SHT30;60886;55.034;73.150;2022-08-01T06:03:21;22.25;74.92
72762;SHT30;60886;55.034;73.150;2022-08-01T06:05:48;22.23;73.74
72762;SHT30;60886;55.034;73.150;2022-08-01T06:08:19;22.23;73.87
72762;SHT30;60886;55.034;73.150;2022-08-01T06:10:46;22.24;74.47
72762;SHT30;60886;55.034;73.150;2022-08-01T06:13:12;22.24;74.55
72762;SHT30;60886;55.034;73.150;2022-08-01T06:15:39;22.27;73.93
72762;SHT30;60886;55.034;73.150;2022-08-01T06:18:05;22.29;73.64
72762;SHT30;60886;55.034;73.150;2022-08-01T06:20:32;22.30;73.90
72762;SHT30;60886;55.034;73.150;2022-08-01T06:22:58;22.30;74.28
72762;SHT30;60886;55.034;73.150;2022-08-01T06:25:25;22.17;74.27
72762;SHT30;60886;55.034;73.150;2022-08-01T06:27:51;22.07;74.14
72762;SHT30;60886;55.034;73.150;2022-08-01T06:30:18;21.99;74.57
72762;SHT30;60886;55.034;73.150;2022-08-01T06:32:45;22.00;75.01
72762;SHT30;60886;55.034;73.150;2022-08-01T06:35:15;22.04;74.15
72762;SHT30;60886;55.034;73.150;2022-08-01T06:37:42;22.13;73.62
72762;SHT30;60886;55.034;73.150;2022-08-01T06:40:10;22.17;73.30
72762;SHT30;60886;55.034;73.150;2022-08-01T06:42:37;22.30;74.07
72762;SHT30;60886;55.034;73.150;2022-08-01T06:45:05;22.37;73.58
72762;SHT30;60886;55.034;73.150;2022-08-01T06:47:32;22.45;73.00
72762;SHT30;60886;55.034;73.150;2022-08-01T06:50:05;22.60;73.89
72762;SHT30;60886;55.034;73.150;2022-08-01T06:52:32;22.69;72.94
72762;SHT30;60886;55.034;73.150;2022-08-01T06:54:59;22.84;72.03
72762;SHT30;60886;55.034;73.150;2022-08-01T06:57:26;22.98;71.81
72762;SHT30;60886;55.034;73.150;2022-08-01T06:59:53;23.09;71.29
72762;SHT30;60886;55.034;73.150;2022-08-01T07:02:19;23.12;71.73
72762;SHT30;60886;55.034;73.150;2022-08-01T07:04:46;23.12;70.96
72762;SHT30;60886;55.034;73.150;2022-08-01T07:07:22;23.04;71.87
72762;SHT30;60886;55.034;73.150;2022-08-01T07:09:58;22.94;71.65
72762;SHT30;60886;55.034;73.150;2022-08-01T07:12:25;22.84;72.27
72762;SHT30;60886;55.034;73.150;2022-08-01T07:14:51;22.78;72.75
72762;SHT30;60886;55.034;73.150;2022-08-01T07:17:18;22.68;72.81
72762;SHT30;60886;55.034;73.150;2022-08-01T07:19:47;22.65;72.59
72762;SHT30;60886;55.034;73.150;2022-08-01T07:22:13;22.64;72.73
72762;SHT30;60886;55.034;73.150;2022-08-01T07:24:42;22.54;73.01
72762;SHT30;60886;55.034;73.150;2022-08-01T07:27:13;22.50;73.15
72762;SHT30;60886;55.034;73.150;2022-08-01T07:29:40;22.43;72.94
72762;SHT30;60886;55.034;73.150;2022-08-01T07:32:06;22.47;73.52
72762;SHT30;60886;55.034;73.150;2022-08-01T07:34:43;22.48;73.07
72762;SHT30;60886;55.034;73.150;2022-08-01T07:37:09;22.43;73.03
72762;SHT30;60886;55.034;73.150;2022-08-01T07:39:36;22.50;74.54
72762;SHT30;60886;55.034;73.150;2022-08-01T07:42:02;22.51;72.94
72762;SHT30;60886;55.034;73.150;2022-08-01T07:44:29;22.51;73.40
72762;SHT30;60886;55.034;73.150;2022-08-01T07:46:55;22.55;73.79
72762;SHT30;60886;55.034;73.150;2022-08-01T07:49:22;22.53;73.69
72762;SHT30;60886;55.034;73.150;2022-08-01T07:51:53;22.44;74.00
72762;SHT30;60886;55.034;73.150;2022-08-01T07:54:24;22.34;74.53
72762;SHT30;60886;55.034;73.150;2022-08-01T07:56:59;22.24;74.90
72762;SHT30;60886;55.034;73.150;2022-08-01T07:59:25;22.21;75.53
72762;SHT30;60886;55.034;73.150;2022-08-01T08:01:57;22.24;75.46
72762;SHT30;60886;55.034;73.150;2022-08-01T08:04:24;22.31;75.30
72762;SHT30;60886;55.034;73.150;2022-08-01T08:06:50;22.43;73.98
72762;SHT30;60886;55.034;73.150;2022-08-01T08:09:23;22.45;74.46
72762;SHT30;60886;55.034;73.150;2022-08-01T08:11:50;22.53;73.70
72762;SHT30;60886;55.034;73.150;2022-08-01T08:14:16;22.57;73.80
72762;SHT30;60886;55.034;73.150;2022-08-01T08:16:50;22.64;73.06
72762;SHT30;60886;55.034;73.150;2022-08-01T08:19:20;22.83;73.93
72762;SHT30;60886;55.034;73.150;2022-08-01T08:21:47;22.91;73.71
72762;SHT30;60886;55.034;73.150;2022-08-01T08:24:13;22.75;74.11
72762;SHT30;60886;55.034;73.150;2022-08-01T08:26:51;22.75;72.80
72762;SHT30;60886;55.034;73.150;2022-08-01T08:29:19;22.85;73.03
72762;SHT30;60886;55.034;73.150;2022-08-01T08:31:46;23.01;73.40
72762;SHT30;60886;55.034;73.150;2022-08-01T08:34:13;23.06;71.51
72762;SHT30;60886;55.034;73.150;2022-08-01T08:36:39;22.96;72.36
72762;SHT30;60886;55.034;73.150;2022-08-01T08:39:06;22.67;70.86
72762;SHT30;60886;55.034;73.150;2022-08-01T08:41:33;22.24;70.80
72762;SHT30;60886;55.034;73.150;2022-08-01T08:44:04;22.03;71.75
72762;SHT30;60886;55.034;73.150;2022-08-01T08:46:32;21.99;71.21
72762;SHT30;60886;55.034;73.150;2022-08-01T08:49:01;21.97;71.37
72762;SHT30;60886;55.034;73.150;2022-08-01T08:51:30;22.04;72.04
72762;SHT30;60886;55.034;73.150;2022-08-01T08:53:57;22.09;71.61
72762;SHT30;60886;55.034;73.150;2022-08-01T08:56:25;22.09;70.50
72762;SHT30;60886;55.034;73.150;2022-08-01T08:58:52;22.04;70.16
72762;SHT30;60886;55.034;73.150;2022-08-01T09:01:19;21.96;70.45
72762;SHT30;60886;55.034;73.150;2022-08-01T09:03:45;22.04;69.92
72762;SHT30;60886;55.034;73.150;2022-08-01T09:06:16;22.14;69.32
72762;SHT30;60886;55.034;73.150;2022-08-01T09:08:44;22.11;68.92
72762;SHT30;60886;55.034;73.150;2022-08-01T09:11:11;22.23;69.00
72762;SHT30;60886;55.034;73.150;2022-08-01T09:14:10;22.21;68.60
72762;SHT30;60886;55.034;73.150;2022-08-01T09:16:40;22.21;68.78
72762;SHT30;60886;55.034;73.150;2022-08-01T09:19:18;22.25;68.50
72762;SHT30;60886;55.034;73.150;2022-08-01T09:24:28;22.04;68.48
72762;SHT30;60886;55.034;73.150;2022-08-01T09:26:55;22.01;69.12
72762;SHT30;60886;55.034;73.150;2022-08-01T09:29:29;22.01;67.48
72762;SHT30;60886;55.034;73.150;2022-08-01T09:31:57;21.93;69.02
72762;SHT30;60886;55.034;73.150;2022-08-01T09:34:27;22.03;68.30
72762;SHT30;60886;55.034;73.150;2022-08-01T09:36:59;22.04;67.51
72762;SHT30;60886;55.034;73.150;2022-08-01T09:39:28;22.07;69.06
72762;SHT30;60886;55.034;73.150;2022-08-01T09:42:21;22.09;67.49
72762;SHT30;60886;55.034;73.150;2022-08-01T09:44:48;22.04;66.79
72762;SHT30;60886;55.034;73.150;2022-08-01T09:47:15;22.07;68.23
72762;SHT30;60886;55.034;73.150;2022-08-01T09:49:43;22.16;68.60
72762;SHT30;60886;55.034;73.150;2022-08-01T09:52:14;22.24;67.99
72762;SHT30;60886;55.034;73.150;2022-08-01T09:54:42;22.34;68.74
72762;SHT30;60886;55.034;73.150;2022-08-01T09:57:15;22.44;67.74
72762;SHT30;60886;55.034;73.150;2022-08-01T09:59:48;22.51;68.48
72762;SHT30;60886;55.034;73.150;2022-08-01T10:02:30;22.64;67.15
72762;SHT30;60886;55.034;73.150;2022-08-01T10:05:04;22.72;66.64
72762;SHT30;60886;55.034;73.150;2022-08-01T10:07:31;22.83;66.08
72762;SHT30;60886;55.034;73.150;2022-08-01T10:10:12;23.02;67.35
72762;SHT30;60886;55.034;73.150;2022-08-01T10:12:51;23.22;65.88
72762;SHT30;60886;55.034;73.150;2022-08-01T10:15:18;23.20;66.57
72762;SHT30;60886;55.034;73.150;2022-08-01T10:17:53;23.22;65.44
72762;SHT30;60886;55.034;73.150;2022-08-01T10:20:22;23.22;64.60
72762;SHT30;60886;55.034;73.150;2022-08-01T10:22:52;23.29;63.72
72762;SHT30;60886;55.034;73.150;2022-08-01T10:25:27;23.28;64.54
72762;SHT30;60886;55.034;73.150;2022-08-01T10:27:54;23.18;63.05
72762;SHT30;60886;55.034;73.150;2022-08-01T10:30:23;22.90;63.65
72762;SHT30;60886;55.034;73.150;2022-08-01T10:32:50;22.75;63.53
72762;SHT30;60886;55.034;73.150;2022-08-01T10:35:19;22.64;64.49
72762;SHT30;60886;55.034;73.150;2022-08-01T10:37:46;22.58;65.06
72762;SHT30;60886;55.034;73.150;2022-08-01T10:40:14;22.47;66.03
72762;SHT30;60886;55.034;73.150;2022-08-01T10:42:44;22.29;65.66
72762;SHT30;60886;55.034;73.150;2022-08-01T10:45:13;22.27;66.51
72762;SHT30;60886;55.034;73.150;2022-08-01T10:48:14;22.33;67.49
72762;SHT30;60886;55.034;73.150;2022-08-01T10:50:45;22.30;66.79
72762;SHT30;60886;55.034;73.150;2022-08-01T10:53:23;22.43;66.93
72762;SHT30;60886;55.034;73.150;2022-08-01T10:58:25;22.48;63.49
72762;SHT30;60886;55.034;73.150;2022-08-01T11:01:19;22.53;63.75
72762;SHT30;60886;55.034;73.150;2022-08-01T11:04:07;22.53;63.89
72762;SHT30;60886;55.034;73.150;2022-08-01T11:09:05;22.48;64.11
72762;SHT30;60886;55.034;73.150;2022-08-01T11:12:02;22.57;64.45
72762;SHT30;60886;55.034;73.150;2022-08-01T11:14:32;22.61;65.80
72762;SHT30;60886;55.034;73.150;2022-08-01T11:17:30;22.76;64.86
72762;SHT30;60886;55.034;73.150;2022-08-01T11:30:50;23.30;61.04
72762;SHT30;60886;55.034;73.150;2022-08-01T11:33:19;23.39;61.52
72762;SHT30;60886;55.034;73.150;2022-08-01T11:38:42;23.26;59.19
72762;SHT30;60886;55.034;73.150;2022-08-01T11:41:24;23.23;59.67
72762;SHT30;60886;55.034;73.150;2022-08-01T11:44:12;23.23;59.83
72762;SHT30;60886;55.034;73.150;2022-08-01T11:46:57;23.01;59.46
72762;SHT30;60886;55.034;73.150;2022-08-01T11:52:11;22.51;59.38
72762;SHT30;60886;55.034;73.150;2022-08-01T11:57:14;22.07;60.87
72762;SHT30;60886;55.034;73.150;2022-08-01T11:59:45;21.90;61.33
72762;SHT30;60886;55.034;73.150;2022-08-01T12:02:25;21.75;61.50
72762;SHT30;60886;55.034;73.150;2022-08-01T12:05:05;21.63;59.42
72762;SHT30;60886;55.034;73.150;2022-08-01T12:07:33;21.43;58.85
72762;SHT30;60886;55.034;73.150;2022-08-01T12:10:27;21.22;58.20
72762;SHT30;60886;55.034;73.150;2022-08-01T12:12:58;21.12;59.03
72762;SHT30;60886;55.034;73.150;2022-08-01T12:15:37;21.02;59.97
72762;SHT30;60886;55.034;73.150;2022-08-01T12:18:05;20.95;60.74
72762;SHT30;60886;55.034;73.150;2022-08-01T12:20:35;20.92;60.49
72762;SHT30;60886;55.034;73.150;2022-08-01T12:23:04;20.84;60.23
72762;SHT30;60886;55.034;73.150;2022-08-01T12:25:34;20.83;60.42
72762;SHT30;60886;55.034;73.150;2022-08-01T12:28:05;20.78;60.41
72762;SHT30;60886;55.034;73.150;2022-08-01T12:30:36;20.74;59.22
72762;SHT30;60886;55.034;73.150;2022-08-01T12:33:04;20.77;59.97
72762;SHT30;60886;55.034;73.150;2022-08-01T12:35:31;20.74;58.27
72762;SHT30;60886;55.034;73.150;2022-08-01T12:38:20;20.71;59.19
72762;SHT30;60886;55.034;73.150;2022-08-01T12:40:48;20.64;54.60
72762;SHT30;60886;55.034;73.150;2022-08-01T12:43:20;20.61;53.89
72762;SHT30;60886;55.034;73.150;2022-08-01T12:45:49;20.51;54.38
72762;SHT30;60886;55.034;73.150;2022-08-01T12:48:17;20.45;56.37
72762;SHT30;60886;55.034;73.150;2022-08-01T12:50:48;20.53;56.87
72762;SHT30;60886;55.034;73.150;2022-08-01T12:53:16;20.53;57.99
72762;SHT30;60886;55.034;73.150;2022-08-01T12:55:50;20.50;58.42
72762;SHT30;60886;55.034;73.150;2022-08-01T12:58:17;20.39;58.81
72762;SHT30;60886;55.034;73.150;2022-08-01T13:00:46;20.26;58.55
72762;SHT30;60886;55.034;73.150;2022-08-01T13:03:15;20.20;59.43
72762;SHT30;60886;55.034;73.150;2022-08-01T13:05:50;20.17;60.78
72762;SHT30;60886;55.034;73.150;2022-08-01T13:08:18;20.13;61.06
72762;SHT30;60886;55.034;73.150;2022-08-01T13:10:45;20.16;60.94
72762;SHT30;60886;55.034;73.150;2022-08-01T13:13:13;20.09;60.63
72762;SHT30;60886;55.034;73.150;2022-08-01T13:15:45;20.00;61.03
72762;SHT30;60886;55.034;73.150;2022-08-01T13:18:30;19.99;60.94
72762;SHT30;60886;55.034;73.150;2022-08-01T13:21:29;19.90;61.46
72762;SHT30;60886;55.034;73.150;2022-08-01T13:24:10;19.80;61.16
72762;SHT30;60886;55.034;73.150;2022-08-01T13:26:48;19.75;62.39
72762;SHT30;60886;55.034;73.150;2022-08-01T13:29:28;19.72;62.44
72762;SHT30;60886;55.034;73.150;2022-08-01T13:31:55;19.66;62.35
72762;SHT30;60886;55.034;73.150;2022-08-01T13:34:34;19.62;62.87
72762;SHT30;60886;55.034;73.150;2022-08-01T13:37:01;19.63;63.29
72762;SHT30;60886;55.034;73.150;2022-08-01T13:39:34;19.61;63.77
72762;SHT30;60886;55.034;73.150;2022-08-01T13:42:11;19.59;63.55
72762;SHT30;60886;55.034;73.150;2022-08-01T13:44:38;19.58;63.94
72762;SHT30;60886;55.034;73.150;2022-08-01T13:47:05;19.58;63.63
72762;SHT30;60886;55.034;73.150;2022-08-01T13:49:32;19.55;63.90
72762;SHT30;60886;55.034;73.150;2022-08-01T13:52:00;19.54;63.68
72762;SHT30;60886;55.034;73.150;2022-08-01T13:54:26;19.48;64.16
72762;SHT30;60886;55.034;73.150;2022-08-01T13:56:53;19.47;64.10
72762;SHT30;60886;55.034;73.150;2022-08-01T13:59:20;19.42;64.29
72762;SHT30;60886;55.034;73.150;2022-08-01T14:01:46;19.41;65.14
72762;SHT30;60886;55.034;73.150;2022-08-01T14:04:13;19.34;66.36
72762;SHT30;60886;55.034;73.150;2022-08-01T14:06:40;19.25;67.06
72762;SHT30;60886;55.034;73.150;2022-08-01T14:09:07;19.19;66.50
72762;SHT30;60886;55.034;73.150;2022-08-01T14:11:33;19.19;67.08
72762;SHT30;60886;55.034;73.150;2022-08-01T14:14:00;19.14;67.52
72762;SHT30;60886;55.034;73.150;2022-08-01T14:16:28;19.10;67.68
72762;SHT30;60886;55.034;73.150;2022-08-01T14:19:01;19.04;68.21
72762;SHT30;60886;55.034;73.150;2022-08-01T14:21:27;18.97;68.51
72762;SHT30;60886;55.034;73.150;2022-08-01T14:23:54;18.93;68.67
72762;SHT30;60886;55.034;73.150;2022-08-01T14:26:21;18.91;68.72
72762;SHT30;60886;55.034;73.150;2022-08-01T14:28:47;18.91;68.84
72762;SHT30;60886;55.034;73.150;2022-08-01T14:31:19;18.84;69.39
72762;SHT30;60886;55.034;73.150;2022-08-01T14:33:45;18.80;69.52
72762;SHT30;60886;55.034;73.150;2022-08-01T14:36:12;18.74;69.96
72762;SHT30;60886;55.034;73.150;2022-08-01T14:38:38;18.73;70.45
72762;SHT30;60886;55.034;73.150;2022-08-01T14:41:04;18.66;70.83
72762;SHT30;60886;55.034;73.150;2022-08-01T14:43:31;18.59;71.41
72762;SHT30;60886;55.034;73.150;2022-08-01T14:46:07;18.56;70.77
72762;SHT30;60886;55.034;73.150;2022-08-01T14:48:35;18.50;71.26
72762;SHT30;60886;55.034;73.150;2022-08-01T14:51:02;18.44;71.51
72762;SHT30;60886;55.034;73.150;2022-08-01T14:53:29;18.42;71.73
72762;SHT30;60886;55.034;73.150;2022-08-01T14:55:55;18.33;71.60
72762;SHT30;60886;55.034;73.150;2022-08-01T14:58:21;18.28;71.75
72762;SHT30;60886;55.034;73.150;2022-08-01T15:00:48;18.17;71.77
72762;SHT30;60886;55.034;73.150;2022-08-01T15:03:14;18.12;71.96
72762;SHT30;60886;55.034;73.150;2022-08-01T15:05:42;18.02;72.44
72762;SHT30;60886;55.034;73.150;2022-08-01T15:08:08;17.89;74.00
72762;SHT30;60886;55.034;73.150;2022-08-01T15:10:34;17.78;74.47
72762;SHT30;60886;55.034;73.150;2022-08-01T15:13:01;17.70;74.66
72762;SHT30;60886;55.034;73.150;2022-08-01T15:15:28;17.57;74.60
72762;SHT30;60886;55.034;73.150;2022-08-01T15:17:54;17.44;74.60
72762;SHT30;60886;55.034;73.150;2022-08-01T15:20:21;17.37;74.49
72762;SHT30;60886;55.034;73.150;2022-08-01T15:22:48;17.32;74.83
72762;SHT30;60886;55.034;73.150;2022-08-01T15:25:14;17.32;74.68
72762;SHT30;60886;55.034;73.150;2022-08-01T15:27:40;17.26;74.85
72762;SHT30;60886;55.034;73.150;2022-08-01T15:30:12;17.16;75.10
72762;SHT30;60886;55.034;73.150;2022-08-01T15:32:49;17.21;74.91
72762;SHT30;60886;55.034;73.150;2022-08-01T15:35:15;17.16;74.79
72762;SHT30;60886;55.034;73.150;2022-08-01T15:37:43;17.16;74.81
72762;SHT30;60886;55.034;73.150;2022-08-01T15:40:19;17.08;74.36
72762;SHT30;60886;55.034;73.150;2022-08-01T15:42:46;17.10;74.34
72762;SHT30;60886;55.034;73.150;2022-08-01T15:45:12;17.03;74.37
72762;SHT30;60886;55.034;73.150;2022-08-01T15:47:42;17.02;74.34
72762;SHT30;60886;55.034;73.150;2022-08-01T15:50:09;16.97;74.46
72762;SHT30;60886;55.034;73.150;2022-08-01T15:52:36;16.90;74.83
72762;SHT30;60886;55.034;73.150;2022-08-01T15:55:03;16.84;75.12
72762;SHT30;60886;55.034;73.150;2022-08-01T15:57:30;16.76;75.62
72762;SHT30;60886;55.034;73.150;2022-08-01T15:59:59;16.72;75.79
72762;SHT30;60886;55.034;73.150;2022-08-01T16:02:26;16.69;76.07
72762;SHT30;60886;55.034;73.150;2022-08-01T16:04:52;16.70;76.09
72762;SHT30;60886;55.034;73.150;2022-08-01T16:07:18;16.67;76.18